EW8163 Weather Reports


Display with metric or nautical units.
time (UTC)temp
F
wind
direction
speed
MPH
gust
MPH
rain 1hr
in
rain 24hr
in
rain mn
in
humidity
%
barometer
mb
20220818231324 86 255 1.0 4.0 0.00 0.00 0.00 22 1023.6
20220818230423 87 249 2.0 4.0 0.00 0.00 0.00 22 1023.7
20220818230324 87 225 1.0 3.0 0.00 0.00 0.00 22 1023.7
20220818225323 87 156 0.0 2.0 0.00 0.00 0.00 23 1023.7
20220818215422 87 284 2.0 6.0 0.00 0.00 0.00 24 1024.0
20220818213321 86 286 3.0 4.0 0.00 0.00 0.00 24 1024.2
20220818212323 86 278 6.0 8.0 0.00 0.00 0.00 24 1024.2
20220818211322 86 256 2.0 3.0 0.00 0.00 0.00 24 1024.2
20220818211222 86 227 1.0 4.0 0.00 0.00 0.00 25 1024.3
20220818202322 86 236 2.0 3.0 0.00 0.00 0.00 23 1024.6
20220818201324 86 259 2.0 5.0 0.00 0.00 0.00 24 1024.6
20220818200324 86 276 5.0 8.0 0.00 0.00 0.00 26 1024.7
20220818195422 86 281 3.0 6.0 0.00 0.00 0.00 26 1024.7
20220818194423 86 186 0.0 3.0 0.00 0.00 0.00 25 1024.7
20220818190522 85 271 2.0 4.0 0.00 0.00 0.00 27 1024.7
20220818185423 85 263 4.0 6.0 0.00 0.00 0.00 29 1024.8
20220818182423 80 133 5.0 7.0 0.00 0.00 0.00 37 1024.9
20220818181523 80 112 5.0 7.0 0.00 0.00 0.00 39 1024.9
20220818181422 80 112 6.0 9.0 0.00 0.00 0.00 39 1024.7
20220818173424 79 112 5.0 6.0 0.00 0.00 0.00 42 1025.0
20220818172423 78 112 5.0 6.0 0.00 0.00 0.00 43 1024.9
20220818171424 78 112 5.0 6.0 0.00 0.00 0.00 44 1025.1
20220818170522 78 112 6.0 7.0 0.00 0.00 0.00 43 1025.1
20220818170421 78 112 5.0 7.0 0.00 0.00 0.00 43 1025.1
20220818165323 78 112 4.0 6.0 0.00 0.00 0.00 43 1025.2
20220818162423 78 157 1.0 1.0 0.00 0.00 0.00 46 1025.4
20220818160322 73 270 0.0 0.0 0.00 0.00 0.00 52 1025.5
20220818160223 73 270 0.0 0.0 0.00 0.00 0.00 53 1025.6
20220818153325 66 270 0.0 0.0 0.00 0.00 0.00 62 1025.6
20220818152323 64 270 0.0 0.0 0.00 0.00 0.00 65 1025.5
20220818151322 62 270 0.0 1.0 0.00 0.00 0.00 67 1025.7
20220818150421 61 270 0.0 0.0 0.00 0.00 0.00 69 1025.7
20220818144422 58 270 0.0 1.0 0.00 0.00 0.00 72 1025.8
20220818142521 55 270 1.0 1.0 0.00 0.00 0.00 74 1025.8
20220818142423 55 270 1.0 1.0 0.00 0.00 0.00 74 1025.8
20220818141424 54 270 1.0 2.0 0.00 0.00 0.00 75 1025.8
20220818135423 53 270 1.0 1.0 0.00 0.00 0.00 76 1025.6
20220818132622 54 270 1.0 2.0 0.00 0.00 0.00 75 1025.3
20220818131721 54 270 1.0 2.0 0.00 0.00 0.00 75 1025.3
20220818130723 54 270 1.0 1.0 0.00 0.00 0.00 75 1025.1
20220818123822 54 270 1.0 1.0 0.00 0.00 0.00 74 1025.1
20220818122821 55 270 0.0 1.0 0.00 0.00 0.00 73 1025.1
20220818121722 55 270 0.0 0.0 0.00 0.00 0.00 73 1024.9
20220818120723 55 270 0.0 1.0 0.00 0.00 0.00 73 1024.9
20220818115820 55 270 0.0 1.0 0.00 0.00 0.00 73 1024.8
20220818114821 56 270 0.0 1.0 0.00 0.00 0.00 72 1024.7
20220818114722 56 270 0.0 0.0 0.00 0.00 0.00 71 1024.7
20220818114621 56 270 0.0 0.0 0.00 0.00 0.00 72 1024.7
20220818111721 56 270 1.0 1.0 0.00 0.00 0.00 71 1024.9
20220818110723 56 270 1.0 1.0 0.00 0.00 0.00 71 1024.9
20220818104822 56 270 1.0 1.0 0.00 0.00 0.00 72 1024.9
20220818103822 56 270 0.0 0.0 0.00 0.00 0.00 71 1025.1
20220818101821 56 270 0.0 1.0 0.00 0.00 0.00 72 1025.2
20220818095920 56 270 0.0 0.0 0.00 0.00 0.00 70 1025.2
20220818092822 56 270 1.0 1.0 0.00 0.00 0.00 71 1025.2
20220818091821 56 270 0.0 1.0 0.00 0.00 0.00 71 1025.1
20220818084821 57 270 1.0 2.0 0.00 0.00 0.00 70 1025.1
20220818081822 58 270 1.0 2.0 0.00 0.00 0.00 69 1025.2
20220818080823 58 270 1.0 1.0 0.00 0.00 0.00 67 1025.2
20220818075822 58 270 0.0 1.0 0.00 0.00 0.00 67 1025.1
20220818070924 59 270 1.0 1.0 0.00 0.00 0.00 66 1025.2
20220818064006 60 270 1.0 1.0 0.00 0.00 0.00 64 1025.1
20220818062006 60 270 0.0 1.0 0.00 0.00 0.00 65 1025.2
20220818061907 60 270 1.0 1.0 0.00 0.00 0.00 65 1025.3
20220818055008 61 270 0.0 0.0 0.00 0.00 0.00 63 1025.2
20220818053007 61 270 0.0 0.0 0.00 0.00 0.00 63 1025.1
20220818051006 62 270 2.0 2.0 0.00 0.00 0.00 62 1025.2
20220818045107 63 270 0.0 0.0 0.00 0.00 0.00 60 1025.1
20220818044107 64 270 0.0 0.0 0.00 0.00 0.00 58 1025.0
20220818043205 64 270 0.0 0.0 0.00 0.00 0.00 58 1025.1
20220818042206 65 270 0.0 1.0 0.00 0.00 0.00 56 1024.7
20220818041207 66 270 0.0 0.0 0.00 0.00 0.00 56 1024.8
20220818035207 67 270 0.0 0.0 0.00 0.00 0.00 54 1024.6
20220818032306 70 270 0.0 0.0 0.00 0.00 0.00 51 1024.6
20220818031307 71 270 1.0 1.0 0.00 0.00 0.00 50 1024.4
20220818030405 72 225 0.0 0.0 0.00 0.00 0.00 47 1024.4
20220818023507 73 270 0.0 0.0 0.00 0.00 0.00 46 1024.2
20220818023408 74 270 0.0 1.0 0.00 0.00 0.00 46 1024.2
20220818013706 77 292 0.0 0.0 0.00 0.00 0.00 41 1024.2
20220818012707 79 315 0.0 0.0 0.00 0.00 0.00 42 1024.1
20220818010706 77 112 3.0 6.0 0.00 0.00 0.00 44 1024.1
20220818005706 78 108 7.0 10.0 0.00 0.00 0.00 42 1024.2
20220818004707 78 112 3.0 5.0 0.00 0.00 0.00 42 1024.1
20220818004605 78 112 2.0 5.0 0.00 0.00 0.00 42 1024.1
20220818000706 77 135 1.0 2.0 0.00 0.00 0.00 42 1024.4
20220817234806 76 112 0.0 0.0 0.00 0.00 0.00 45 1024.6
20220817231806 76 112 0.0 1.0 0.00 0.00 0.00 44 1025.1